Time;durP1;ratioP1;P1;durP2;ratioP2;P2;SDS_P1;SDS_P2;PMS_P1;PMS_P2;Temp;Humidity;BMP_temperature;BMP_pressure;BME280_temperature;BME280_humidity;BME280_pressure;Samples;Min_cycle;Max_cycle;Signal;HPM_P1;HPM_P2
2023/08/30 00:00:05;;;;;;;9.30;7.07;;;;;;;;;;5038123;28;20088;-76
2023/08/30 00:02:32;;;;;;;8.73;6.78;;;;;;;;;;5039396;28;20045;-76
2023/08/30 00:05:03;;;;;;;9.60;7.68;;;;;;;;;;5040777;28;20100;-75
2023/08/30 00:07:28;;;;;;;10.27;7.85;;;;;;;;;;5037481;28;20057;-76
2023/08/30 00:09:54;;;;;;;11.07;8.15;;;;;;;;;;5028252;28;20109;-77
2023/08/30 00:12:19;;;;;;;11.05;7.95;;;;;;;;;;5039666;28;20052;-76
2023/08/30 00:14:44;;;;;;;14.35;8.30;;;;;;;;;;5029295;28;20139;-77
2023/08/30 00:17:10;;;;;;;8.70;6.97;;;;;;;;;;5024660;28;20053;-75
2023/08/30 00:19:36;;;;;;;10.38;8.13;;;;;;;;;;5035463;28;20186;-77
2023/08/30 00:22:01;;;;;;;9.65;7.28;;;;;;;;;;5027211;28;20187;-76
2023/08/30 00:24:28;;;;;;;9.75;7.75;;;;;;;;;;5042252;28;20112;-76
2023/08/30 00:26:54;;;;;;;9.90;7.88;;;;;;;;;;5030159;28;20059;-76
2023/08/30 00:29:19;;;;;;;11.40;8.18;;;;;;;;;;5024849;28;20498;-75
2023/08/30 00:31:45;;;;;;;9.00;7.28;;;;;;;;;;5038724;28;20192;-76
2023/08/30 00:34:10;;;;;;;10.13;7.63;;;;;;;;;;5021206;28;20053;-76
2023/08/30 00:36:36;;;;;;;13.20;8.13;;;;;;;;;;5023979;28;20040;-76
2023/08/30 00:39:03;;;;;;;9.43;7.43;;;;;;;;;;5037392;28;20063;-73
2023/08/30 00:41:28;;;;;;;9.10;7.18;;;;;;;;;;5034374;28;20049;-76
2023/08/30 00:43:54;;;;;;;7.80;6.47;;;;;;;;;;5025155;28;20451;-74
2023/08/30 00:46:19;;;;;;;9.60;7.65;;;;;;;;;;5036777;28;20056;-76
2023/08/30 00:48:45;;;;;;;10.63;7.22;;;;;;;;;;5035845;28;20095;-76
2023/08/30 00:51:11;;;;;;;10.02;7.60;;;;;;;;;;5025436;28;20044;-74
2023/08/30 00:53:36;;;;;;;8.75;7.50;;;;;;;;;;5022159;28;20050;-76
2023/08/30 00:56:02;;;;;;;10.77;7.57;;;;;;;;;;5039465;28;20044;-76
2023/08/30 00:58:28;;;;;;;11.05;7.57;;;;;;;;;;5038323;28;20044;-76
2023/08/30 01:00:54;;;;;;;13.85;7.97;;;;;;;;;;5019586;28;20049;-76
2023/08/30 01:03:21;;;;;;;11.25;8.60;;;;;;;;;;5038361;28;20052;-77
2023/08/30 01:05:47;;;;;;;10.77;8.25;;;;;;;;;;5037970;28;20056;-76
2023/08/30 01:08:13;;;;;;;11.52;8.43;;;;;;;;;;5039087;28;20386;-75
2023/08/30 01:11:10;;;;;;;12.88;8.07;;;;;;;;;;5023657;28;20045;-75
2023/08/30 01:13:45;;;;;;;11.77;8.20;;;;;;;;;;5021572;28;20061;-76
2023/08/30 01:16:11;;;;;;;13.95;8.52;;;;;;;;;;5025522;28;20080;-75
2023/08/30 01:18:39;;;;;;;10.57;7.55;;;;;;;;;;5029521;28;20044;-74
2023/08/30 01:21:11;;;;;;;10.15;7.95;;;;;;;;;;5037911;28;20047;-74
2023/08/30 01:23:47;;;;;;;8.73;7.07;;;;;;;;;;5020595;28;20053;-74
2023/08/30 01:26:41;;;;;;;10.35;7.25;;;;;;;;;;5035905;28;20068;-76
2023/08/30 01:29:10;;;;;;;11.50;8.02;;;;;;;;;;5009329;28;20115;-77
2023/08/30 01:31:38;;;;;;;11.77;8.52;;;;;;;;;;5020095;28;20044;-75
2023/08/30 01:34:04;;;;;;;12.45;9.35;;;;;;;;;;5029810;28;20109;-76
2023/08/30 01:36:31;;;;;;;12.18;8.52;;;;;;;;;;5038626;28;20516;-74
2023/08/30 01:38:58;;;;;;;11.15;8.60;;;;;;;;;;5017162;28;20393;-76
2023/08/30 01:41:25;;;;;;;11.48;8.35;;;;;;;;;;5024767;28;20552;-77
2023/08/30 01:43:52;;;;;;;13.27;7.90;;;;;;;;;;5025886;28;20885;-74
2023/08/30 01:46:19;;;;;;;11.88;7.85;;;;;;;;;;5028944;28;20093;-77
2023/08/30 01:48:47;;;;;;;10.80;7.90;;;;;;;;;;5026367;28;20081;-75
2023/08/30 01:51:15;;;;;;;12.50;7.80;;;;;;;;;;5037985;28;20041;-77
2023/08/30 01:53:43;;;;;;;11.57;8.38;;;;;;;;;;5024053;28;20065;-76
2023/08/30 01:56:08;;;;;;;13.77;8.77;;;;;;;;;;5043183;28;20489;-76
2023/08/30 01:58:34;;;;;;;12.27;8.60;;;;;;;;;;5026288;28;20048;-75
2023/08/30 02:01:00;;;;;;;12.40;7.85;;;;;;;;;;5032393;28;20052;-77
2023/08/30 02:03:25;;;;;;;11.43;7.78;;;;;;;;;;5025881;28;20127;-74
2023/08/30 02:06:14;;;;;;;12.82;8.75;;;;;;;;;;5029983;28;20789;-76
2023/08/30 02:08:49;;;;;;;12.43;7.90;;;;;;;;;;5041200;28;20056;-75
2023/08/30 02:11:21;;;;;;;14.38;9.00;;;;;;;;;;5024951;28;20072;-76
2023/08/30 02:13:48;;;;;;;11.95;7.88;;;;;;;;;;5037144;28;20083;-74
2023/08/30 02:16:16;;;;;;;11.57;8.23;;;;;;;;;;5043243;28;20686;-74
2023/08/30 02:18:42;;;;;;;14.45;8.90;;;;;;;;;;5038909;28;20136;-75
2023/08/30 02:21:08;;;;;;;11.93;8.73;;;;;;;;;;5029470;28;20136;-75
2023/08/30 02:23:33;;;;;;;11.15;7.88;;;;;;;;;;5040269;28;20497;-77
2023/08/30 02:25:59;;;;;;;12.05;8.45;;;;;;;;;;5028890;28;20053;-76
2023/08/30 02:28:24;;;;;;;11.18;7.75;;;;;;;;;;5047328;28;20064;-74
2023/08/30 02:30:53;;;;;;;11.23;7.60;;;;;;;;;;5039976;28;20064;-77
2023/08/30 02:33:19;;;;;;;11.88;7.50;;;;;;;;;;5020672;28;20049;-75
2023/08/30 02:35:45;;;;;;;11.02;8.00;;;;;;;;;;5038216;28;20045;-76
2023/08/30 02:38:10;;;;;;;15.18;8.18;;;;;;;;;;5039439;28;20105;-75
2023/08/30 02:40:36;;;;;;;10.90;7.55;;;;;;;;;;5036490;28;20048;-75
2023/08/30 02:43:01;;;;;;;11.15;7.75;;;;;;;;;;5040080;28;20044;-76
2023/08/30 02:45:26;;;;;;;10.73;7.50;;;;;;;;;;5035159;28;21038;-76
2023/08/30 02:47:55;;;;;;;9.73;7.10;;;;;;;;;;5036669;28;20119;-76
2023/08/30 02:50:20;;;;;;;12.85;8.18;;;;;;;;;;5038979;28;20094;-76
2023/08/30 02:52:46;;;;;;;9.63;7.05;;;;;;;;;;5021768;28;20053;-77
2023/08/30 02:55:11;;;;;;;31.08;7.22;;;;;;;;;;5043779;28;20056;-75
2023/08/30 02:57:36;;;;;;;8.90;7.25;;;;;;;;;;5022498;28;20045;-76
2023/08/30 03:00:05;;;;;;;10.63;6.85;;;;;;;;;;5038478;28;20096;-76
2023/08/30 03:02:33;;;;;;;10.10;7.65;;;;;;;;;;5023413;28;20493;-75
2023/08/30 03:04:59;;;;;;;9.85;7.00;;;;;;;;;;5039721;28;20041;-76
2023/08/30 03:07:25;;;;;;;9.40;7.60;;;;;;;;;;5027793;28;20071;-76
2023/08/30 03:09:53;;;;;;;19.35;7.32;;;;;;;;;;5035899;28;20076;-75
2023/08/30 03:12:19;;;;;;;9.32;7.20;;;;;;;;;;5042383;28;20048;-75
2023/08/30 03:14:46;;;;;;;9.32;7.05;;;;;;;;;;5023050;28;20041;-76
2023/08/30 03:17:12;;;;;;;10.18;7.07;;;;;;;;;;5020661;28;20048;-76
2023/08/30 03:19:37;;;;;;;9.05;6.55;;;;;;;;;;5038374;28;20037;-75
2023/08/30 03:22:03;;;;;;;9.80;7.40;;;;;;;;;;5026323;28;20040;-75
2023/08/30 03:24:28;;;;;;;8.13;6.43;;;;;;;;;;5038698;28;20080;-75
2023/08/30 03:26:54;;;;;;;9.55;6.80;;;;;;;;;;5035272;28;20053;-75
2023/08/30 03:29:19;;;;;;;8.20;6.78;;;;;;;;;;5041251;28;20135;-75
2023/08/30 03:31:46;;;;;;;8.63;6.80;;;;;;;;;;5022929;28;20178;-76
2023/08/30 03:34:11;;;;;;;9.48;6.50;;;;;;;;;;5036466;28;20152;-75
2023/08/30 03:36:38;;;;;;;9.82;6.80;;;;;;;;;;5029746;28;20080;-76
2023/08/30 03:39:03;;;;;;;8.10;6.25;;;;;;;;;;5025617;28;20038;-74
2023/08/30 03:41:29;;;;;;;8.25;6.40;;;;;;;;;;5028004;28;20523;-76
2023/08/30 03:43:55;;;;;;;8.65;6.85;;;;;;;;;;5040582;28;20424;-76
2023/08/30 03:46:20;;;;;;;9.07;6.50;;;;;;;;;;5027184;28;20549;-76
2023/08/30 03:48:46;;;;;;;9.40;6.38;;;;;;;;;;5028495;28;20047;-76
2023/08/30 03:51:11;;;;;;;7.85;6.00;;;;;;;;;;5035048;28;20045;-75
2023/08/30 03:53:37;;;;;;;6.43;5.70;;;;;;;;;;5038297;28;20059;-76
2023/08/30 03:56:06;;;;;;;9.02;6.32;;;;;;;;;;5021558;28;20037;-75
2023/08/30 03:58:31;;;;;;;9.32;5.80;;;;;;;;;;5020082;28;20096;-76
2023/08/30 04:00:57;;;;;;;11.45;5.78;;;;;;;;;;5032709;28;20641;-75
2023/08/30 04:03:22;;;;;;;7.03;5.32;;;;;;;;;;5017317;28;20045;-75
2023/08/30 04:05:54;;;;;;;6.20;5.28;;;;;;;;;;5037214;28;20060;-76
2023/08/30 04:08:20;;;;;;;8.07;5.50;;;;;;;;;;5024907;28;20041;-76
2023/08/30 04:10:47;;;;;;;7.25;4.93;;;;;;;;;;5022743;28;20045;-76
2023/08/30 04:13:12;;;;;;;9.13;5.45;;;;;;;;;;5023389;28;20045;-76
2023/08/30 04:15:38;;;;;;;6.38;4.95;;;;;;;;;;5024679;28;20075;-76
2023/08/30 04:18:05;;;;;;;7.00;5.20;;;;;;;;;;5031462;28;20048;-76
2023/08/30 04:20:32;;;;;;;5.90;5.15;;;;;;;;;;5018347;28;20243;-76
2023/08/30 04:22:58;;;;;;;5.55;4.78;;;;;;;;;;5023026;28;20079;-76
2023/08/30 04:25:24;;;;;;;7.32;5.55;;;;;;;;;;5034120;28;20057;-76
2023/08/30 04:27:49;;;;;;;6.57;4.72;;;;;;;;;;5018110;28;20106;-75
2023/08/30 04:30:16;;;;;;;7.18;5.43;;;;;;;;;;5022835;28;20121;-76
2023/08/30 04:32:42;;;;;;;10.20;5.28;;;;;;;;;;5017733;28;20038;-75
2023/08/30 04:35:08;;;;;;;5.63;4.65;;;;;;;;;;5024019;28;20052;-75
2023/08/30 04:37:33;;;;;;;6.15;5.18;;;;;;;;;;5043600;28;20048;-76
2023/08/30 04:39:59;;;;;;;5.65;4.93;;;;;;;;;;5035452;28;20046;-76
2023/08/30 04:42:25;;;;;;;8.60;5.07;;;;;;;;;;5040900;28;20071;-76
2023/08/30 04:44:52;;;;;;;6.05;4.82;;;;;;;;;;5025465;28;20514;-75
2023/08/30 04:47:17;;;;;;;7.78;5.28;;;;;;;;;;5034621;28;20054;-76
2023/08/30 04:49:44;;;;;;;5.03;4.53;;;;;;;;;;5037171;28;20064;-76
2023/08/30 04:52:10;;;;;;;5.50;4.45;;;;;;;;;;5035332;28;20045;-76
2023/08/30 04:54:36;;;;;;;5.45;4.40;;;;;;;;;;5038330;28;20049;-76
2023/08/30 04:57:02;;;;;;;4.90;4.03;;;;;;;;;;5023440;28;20048;-75
2023/08/30 04:59:28;;;;;;;6.82;4.32;;;;;;;;;;5020610;28;20049;-77
2023/08/30 05:01:53;;;;;;;5.72;4.57;;;;;;;;;;5019616;28;20046;-76
2023/08/30 05:04:22;;;;;;;5.35;4.35;;;;;;;;;;5032293;28;20045;-76
2023/08/30 05:06:48;;;;;;;5.25;4.20;;;;;;;;;;5038102;28;20045;-77
2023/08/30 05:09:15;;;;;;;6.50;4.70;;;;;;;;;;5026154;28;20037;-75
2023/08/30 05:11:40;;;;;;;4.72;4.15;;;;;;;;;;5036330;28;20456;-75
2023/08/30 05:14:06;;;;;;;7.35;4.38;;;;;;;;;;5034303;28;20097;-74
2023/08/30 05:16:32;;;;;;;5.10;4.05;;;;;;;;;;5036116;28;20436;-76
2023/08/30 05:18:57;;;;;;;10.43;4.28;;;;;;;;;;5023064;28;20056;-75
2023/08/30 05:21:23;;;;;;;5.32;4.15;;;;;;;;;;5033716;28;20048;-74
2023/08/30 05:23:48;;;;;;;5.57;4.38;;;;;;;;;;5030624;28;20075;-75
2023/08/30 05:26:16;;;;;;;4.72;4.13;;;;;;;;;;5029871;28;20056;-74
2023/08/30 05:28:42;;;;;;;4.60;3.97;;;;;;;;;;5028979;28;20079;-75
2023/08/30 05:31:07;;;;;;;4.88;4.25;;;;;;;;;;5044083;28;20520;-76
2023/08/30 05:33:53;;;;;;;5.93;4.72;;;;;;;;;;5022759;28;20494;-77
2023/08/30 05:36:37;;;;;;;5.35;4.07;;;;;;;;;;5027672;28;20099;-76
2023/08/30 05:39:22;;;;;;;5.38;4.13;;;;;;;;;;5039927;28;20575;-76
2023/08/30 05:41:52;;;;;;;4.85;4.28;;;;;;;;;;5028662;28;21047;-75
2023/08/30 05:44:20;;;;;;;7.45;3.95;;;;;;;;;;5040231;28;20041;-74
2023/08/30 05:46:45;;;;;;;6.53;3.97;;;;;;;;;;5036668;28;20049;-74
2023/08/30 05:49:11;;;;;;;5.38;4.30;;;;;;;;;;5024215;28;20492;-75
2023/08/30 05:51:36;;;;;;;5.03;4.13;;;;;;;;;;5034480;28;20068;-75
2023/08/30 05:54:02;;;;;;;6.50;3.97;;;;;;;;;;5031363;28;21090;-74
2023/08/30 05:56:27;;;;;;;4.60;3.97;;;;;;;;;;5033535;28;20041;-75
2023/08/30 05:58:53;;;;;;;4.75;3.75;;;;;;;;;;5035601;28;20045;-74
2023/08/30 06:01:19;;;;;;;5.43;3.83;;;;;;;;;;5027944;28;20127;-74
2023/08/30 06:03:46;;;;;;;5.43;4.63;;;;;;;;;;5031122;28;20041;-74
2023/08/30 06:06:12;;;;;;;6.25;3.80;;;;;;;;;;5030216;28;20064;-74
2023/08/30 06:08:37;;;;;;;4.40;3.78;;;;;;;;;;5028067;28;20041;-74
2023/08/30 06:11:03;;;;;;;5.10;4.38;;;;;;;;;;5037327;28;20060;-74
2023/08/30 06:13:28;;;;;;;4.38;3.97;;;;;;;;;;5031690;28;20048;-75
2023/08/30 06:15:54;;;;;;;6.28;4.53;;;;;;;;;;5029461;28;20041;-74
2023/08/30 06:18:19;;;;;;;4.68;4.03;;;;;;;;;;5025357;28;20036;-75
2023/08/30 06:20:45;;;;;;;4.65;3.97;;;;;;;;;;5026627;28;20042;-75
2023/08/30 06:23:11;;;;;;;6.93;4.68;;;;;;;;;;5022368;28;20041;-75
2023/08/30 06:25:37;;;;;;;5.82;4.10;;;;;;;;;;5026716;28;20048;-76
2023/08/30 06:28:03;;;;;;;4.68;3.95;;;;;;;;;;5023148;28;20041;-74
2023/08/30 06:30:29;;;;;;;6.40;4.25;;;;;;;;;;5026829;28;20045;-74
2023/08/30 06:32:55;;;;;;;5.68;3.70;;;;;;;;;;5044189;28;20060;-76
2023/08/30 06:35:21;;;;;;;5.07;4.05;;;;;;;;;;5025865;28;20037;-73
2023/08/30 06:37:46;;;;;;;4.50;4.10;;;;;;;;;;5027186;28;20567;-73
2023/08/30 06:40:12;;;;;;;4.63;4.22;;;;;;;;;;5027502;28;20037;-73
2023/08/30 06:42:38;;;;;;;5.70;4.03;;;;;;;;;;5022901;28;20049;-73
2023/08/30 06:45:04;;;;;;;5.70;4.45;;;;;;;;;;5032192;28;20072;-73
2023/08/30 06:47:29;;;;;;;5.40;4.18;;;;;;;;;;5020699;28;20469;-74
2023/08/30 06:49:55;;;;;;;6.72;4.35;;;;;;;;;;5030498;28;20049;-74
2023/08/30 06:52:20;;;;;;;4.30;3.90;;;;;;;;;;5021897;28;20115;-74
2023/08/30 06:54:46;;;;;;;6.00;4.65;;;;;;;;;;5031123;28;20045;-73
2023/08/30 06:57:11;;;;;;;6.22;4.53;;;;;;;;;;5023003;28;20084;-73
2023/08/30 06:59:37;;;;;;;5.50;4.57;;;;;;;;;;5018719;28;20764;-73
2023/08/30 07:02:03;;;;;;;5.13;4.57;;;;;;;;;;5021859;28;20386;-74
2023/08/30 07:04:28;;;;;;;6.00;4.70;;;;;;;;;;5027207;28;20053;-73
2023/08/30 07:06:54;;;;;;;4.47;4.07;;;;;;;;;;5026385;28;20045;-73
2023/08/30 07:09:19;;;;;;;5.72;4.68;;;;;;;;;;5036476;28;20036;-74
2023/08/30 07:11:45;;;;;;;4.63;4.18;;;;;;;;;;5029347;28;20623;-74
2023/08/30 07:14:12;;;;;;;6.88;4.50;;;;;;;;;;5036453;28;20077;-75
2023/08/30 07:16:38;;;;;;;5.72;4.10;;;;;;;;;;5023920;28;20037;-74
2023/08/30 07:19:03;;;;;;;4.60;3.92;;;;;;;;;;5023544;28;20060;-74
2023/08/30 07:21:29;;;;;;;5.78;3.78;;;;;;;;;;5018423;28;20041;-73
2023/08/30 07:23:54;;;;;;;6.22;3.80;;;;;;;;;;5035095;28;20102;-74
2023/08/30 07:26:20;;;;;;;5.05;4.03;;;;;;;;;;5020032;28;20044;-74
2023/08/30 07:28:45;;;;;;;5.45;4.25;;;;;;;;;;5036734;28;20547;-74
2023/08/30 07:31:14;;;;;;;4.30;3.90;;;;;;;;;;5031576;28;20791;-73
2023/08/30 07:33:39;;;;;;;6.03;4.47;;;;;;;;;;5019613;28;20647;-74
2023/08/30 07:36:05;;;;;;;9.25;4.15;;;;;;;;;;5033407;28;20067;-75
2023/08/30 07:38:30;;;;;;;4.43;3.80;;;;;;;;;;5037393;28;20045;-73
2023/08/30 07:40:56;;;;;;;15.07;5.25;;;;;;;;;;5032571;28;20045;-73
2023/08/30 07:43:21;;;;;;;6.53;4.43;;;;;;;;;;5019222;28;20072;-74
2023/08/30 07:45:47;;;;;;;7.00;4.82;;;;;;;;;;5018532;28;20057;-73
2023/08/30 07:48:12;;;;;;;5.72;4.40;;;;;;;;;;5025451;28;20041;-72
2023/08/30 07:50:38;;;;;;;4.60;4.13;;;;;;;;;;5034576;28;20498;-73
2023/08/30 07:53:03;;;;;;;4.38;3.97;;;;;;;;;;5028072;28;20059;-73
2023/08/30 07:55:29;;;;;;;4.95;4.25;;;;;;;;;;5018446;28;20053;-73
2023/08/30 07:57:55;;;;;;;4.65;4.15;;;;;;;;;;5022865;28;20086;-73
2023/08/30 08:00:20;;;;;;;5.97;4.65;;;;;;;;;;5025556;28;20053;-72
2023/08/30 08:02:46;;;;;;;5.85;4.85;;;;;;;;;;5022992;28;20045;-72
2023/08/30 08:05:11;;;;;;;6.85;4.93;;;;;;;;;;5023752;28;20095;-74
2023/08/30 08:07:42;;;;;;;5.38;4.53;;;;;;;;;;5024474;28;20140;-71
2023/08/30 08:10:09;;;;;;;4.93;4.18;;;;;;;;;;5027285;28;20108;-71
2023/08/30 08:12:34;;;;;;;4.65;4.18;;;;;;;;;;5025934;28;20554;-72
2023/08/30 08:15:00;;;;;;;5.03;4.35;;;;;;;;;;5029126;28;20049;-70
2023/08/30 08:17:25;;;;;;;5.55;4.18;;;;;;;;;;5025483;28;20029;-72
2023/08/30 08:19:51;;;;;;;4.55;3.80;;;;;;;;;;5028879;28;20057;-71
2023/08/30 08:22:16;;;;;;;4.13;3.72;;;;;;;;;;5027303;28;20852;-70
2023/08/30 08:24:45;;;;;;;4.28;3.60;;;;;;;;;;5026749;28;20040;-72
2023/08/30 08:27:11;;;;;;;3.30;3.00;;;;;;;;;;5031594;28;20044;-71
2023/08/30 08:29:37;;;;;;;3.88;3.50;;;;;;;;;;5025949;28;20056;-72
2023/08/30 08:32:03;;;;;;;4.03;3.38;;;;;;;;;;5040025;28;20535;-72
2023/08/30 08:34:29;;;;;;;3.40;3.10;;;;;;;;;;5027798;28;20049;-72
2023/08/30 08:36:54;;;;;;;3.58;3.28;;;;;;;;;;5028866;28;20056;-72
2023/08/30 08:39:20;;;;;;;3.40;3.00;;;;;;;;;;5034677;28;20045;-70
2023/08/30 08:41:45;;;;;;;3.55;2.95;;;;;;;;;;5027646;28;20065;-73
2023/08/30 08:44:12;;;;;;;3.28;2.97;;;;;;;;;;5020144;28;20468;-73
2023/08/30 08:46:38;;;;;;;3.60;2.85;;;;;;;;;;5036511;28;20131;-74
2023/08/30 08:49:10;;;;;;;2.47;2.28;;;;;;;;;;5034087;28;20045;-75
2023/08/30 08:51:35;;;;;;;3.63;2.47;;;;;;;;;;5031178;28;20052;-73
2023/08/30 08:54:03;;;;;;;2.63;2.40;;;;;;;;;;5017889;28;20053;-74
2023/08/30 08:56:30;;;;;;;2.70;2.50;;;;;;;;;;5024961;28;20049;-75
2023/08/30 08:58:56;;;;;;;2.83;2.13;;;;;;;;;;5028325;28;20052;-74
2023/08/30 09:01:23;;;;;;;2.08;1.98;;;;;;;;;;5029734;28;20390;-75
2023/08/30 09:03:49;;;;;;;2.33;2.10;;;;;;;;;;5032679;28;20048;-75
2023/08/30 09:06:15;;;;;;;2.20;2.10;;;;;;;;;;5021501;28;20050;-73
2023/08/30 09:08:41;;;;;;;2.40;2.20;;;;;;;;;;5030140;28;20057;-72
2023/08/30 09:11:06;;;;;;;2.05;1.95;;;;;;;;;;5039111;28;20067;-75
2023/08/30 09:13:32;;;;;;;2.70;2.38;;;;;;;;;;5023201;28;20048;-71
2023/08/30 09:15:58;;;;;;;2.40;2.20;;;;;;;;;;5039959;28;20625;-73
2023/08/30 09:18:27;;;;;;;2.22;2.03;;;;;;;;;;5033743;28;20045;-74
2023/08/30 09:20:53;;;;;;;2.22;2.03;;;;;;;;;;5035133;28;20056;-72
2023/08/30 09:23:24;;;;;;;2.42;2.22;;;;;;;;;;5029724;28;20045;-72
2023/08/30 09:25:55;;;;;;;3.42;2.13;;;;;;;;;;5033328;28;20426;-74
2023/08/30 09:28:20;;;;;;;2.00;1.90;;;;;;;;;;5005091;28;20045;-74
2023/08/30 09:30:52;;;;;;;2.22;2.03;;;;;;;;;;5021835;28;20875;-74
2023/08/30 09:33:22;;;;;;;2.40;2.20;;;;;;;;;;5020169;28;20045;-75
2023/08/30 09:35:47;;;;;;;1.98;1.80;;;;;;;;;;5023317;28;20045;-73
2023/08/30 09:38:19;;;;;;;2.15;2.05;;;;;;;;;;5023474;28;20084;-73
2023/08/30 09:40:45;;;;;;;2.25;2.05;;;;;;;;;;5034873;28;20137;-73
2023/08/30 09:43:12;;;;;;;2.03;1.83;;;;;;;;;;5029912;28;20059;-73
2023/08/30 09:45:37;;;;;;;2.10;1.90;;;;;;;;;;5027780;28;20071;-75
2023/08/30 09:48:04;;;;;;;1.80;1.70;;;;;;;;;;5041825;28;20037;-74
2023/08/30 09:50:34;;;;;;;1.92;1.80;;;;;;;;;;5022623;28;20044;-74
2023/08/30 09:53:07;;;;;;;2.95;1.92;;;;;;;;;;5021440;28;20068;-75
2023/08/30 09:55:33;;;;;;;2.00;1.80;;;;;;;;;;5033538;28;20067;-74
2023/08/30 09:57:59;;;;;;;2.05;1.92;;;;;;;;;;5022652;28;20452;-74
2023/08/30 10:00:25;;;;;;;2.35;1.85;;;;;;;;;;5023594;28;20052;-74
2023/08/30 10:02:50;;;;;;;2.92;2.13;;;;;;;;;;5023478;28;20284;-74
2023/08/30 10:05:16;;;;;;;2.15;2.00;;;;;;;;;;5022191;28;20037;-74
2023/08/30 10:07:43;;;;;;;3.17;1.98;;;;;;;;;;5020006;28;20056;-75
2023/08/30 10:10:10;;;;;;;4.35;1.85;;;;;;;;;;5021164;28;20098;-74
2023/08/30 10:12:36;;;;;;;1.38;1.27;;;;;;;;;;5020598;28;20042;-77
2023/08/30 10:15:02;;;;;;;1.48;1.38;;;;;;;;;;5017884;28;20054;-73
2023/08/30 10:17:31;;;;;;;2.15;1.60;;;;;;;;;;5019698;28;20050;-73
2023/08/30 10:19:58;;;;;;;2.42;2.22;;;;;;;;;;5018630;28;20042;-74
2023/08/30 10:22:25;;;;;;;3.03;1.65;;;;;;;;;;5022427;28;20147;-72
2023/08/30 10:24:59;;;;;;;1.80;1.70;;;;;;;;;;5028834;28;20677;-72
2023/08/30 10:27:26;;;;;;;3.33;1.95;;;;;;;;;;5035795;28;20045;-74
2023/08/30 10:29:52;;;;;;;2.92;2.00;;;;;;;;;;5035102;28;20067;-72
2023/08/30 10:32:22;;;;;;;2.13;1.52;;;;;;;;;;5035866;28;20746;-74
2023/08/30 10:34:49;;;;;;;1.95;1.73;;;;;;;;;;5028971;28;20138;-75
2023/08/30 10:37:15;;;;;;;1.75;1.63;;;;;;;;;;5030574;28;20036;-73
2023/08/30 10:39:42;;;;;;;2.17;1.40;;;;;;;;;;5023767;28;20267;-76
2023/08/30 10:42:13;;;;;;;1.10;1.08;;;;;;;;;;5021318;28;20592;-76
2023/08/30 10:44:48;;;;;;;;;;;;;;;;;;5021679;28;20041;-76
2023/08/30 10:47:43;;;;;;;1.17;1.02;;;;;;;;;;5035311;28;19924;-76
2023/08/30 10:50:27;;;;;;;1.45;1.35;;;;;;;;;;5003530;28;20868;-75
2023/08/30 10:52:57;;;;;;;1.55;1.33;;;;;;;;;;5009923;28;20052;-75
2023/08/30 10:55:23;;;;;;;3.72;1.40;;;;;;;;;;5014945;28;20083;-76
2023/08/30 10:58:02;;;;;;;1.60;1.50;;;;;;;;;;5015607;28;20053;-75
2023/08/30 11:00:29;;;;;;;2.03;1.50;;;;;;;;;;5015845;28;20041;-76
2023/08/30 11:02:55;;;;;;;2.28;1.45;;;;;;;;;;5017227;28;20056;-76
2023/08/30 11:05:23;;;;;;;3.67;1.50;;;;;;;;;;5015846;28;20045;-77
2023/08/30 11:07:50;;;;;;;1.60;1.30;;;;;;;;;;5015027;28;20053;-76
2023/08/30 11:10:17;;;;;;;1.77;1.30;;;;;;;;;;5016745;28;20053;-76
2023/08/30 11:12:44;;;;;;;2.17;1.23;;;;;;;;;;4998308;28;20089;-75
2023/08/30 11:15:12;;;;;;;1.23;1.13;;;;;;;;;;5017025;28;20049;-75
2023/08/30 11:17:39;;;;;;;1.17;1.08;;;;;;;;;;5016714;28;20569;-76
2023/08/30 11:20:07;;;;;;;1.13;1.10;;;;;;;;;;5015385;28;20048;-75
2023/08/30 11:22:36;;;;;;;1.58;1.20;;;;;;;;;;5016749;28;20083;-76
2023/08/30 11:25:01;;;;;;;1.00;1.00;;;;;;;;;;5024119;28;20489;-76
2023/08/30 11:27:27;;;;;;;1.10;1.00;;;;;;;;;;5018951;28;20041;-77
2023/08/30 11:29:52;;;;;;;0.88;0.88;;;;;;;;;;5037476;28;20489;-77
2023/08/30 11:32:19;;;;;;;1.65;0.90;;;;;;;;;;5026738;28;20041;-76
2023/08/30 11:34:56;;;;;;;1.65;1.48;;;;;;;;;;5035415;28;20049;-77
2023/08/30 11:37:21;;;;;;;1.00;0.90;;;;;;;;;;5018448;28;20042;-76
2023/08/30 11:39:51;;;;;;;1.27;1.02;;;;;;;;;;5033901;28;20059;-76
2023/08/30 11:42:17;;;;;;;1.10;1.00;;;;;;;;;;5026517;28;20135;-77
2023/08/30 11:44:44;;;;;;;1.30;0.95;;;;;;;;;;5023583;28;20129;-76
2023/08/30 11:47:10;;;;;;;1.75;0.80;;;;;;;;;;5023720;28;20045;-76
2023/08/30 11:49:36;;;;;;;0.88;0.88;;;;;;;;;;5033575;28;20052;-76
2023/08/30 11:52:02;;;;;;;2.83;1.00;;;;;;;;;;5037609;28;20041;-76
2023/08/30 11:54:28;;;;;;;0.90;0.90;;;;;;;;;;5021299;28;20071;-76
2023/08/30 11:56:53;;;;;;;0.95;0.88;;;;;;;;;;5023127;28;20041;-75
2023/08/30 11:59:22;;;;;;;0.95;0.90;;;;;;;;;;5034008;28;20378;-75
2023/08/30 12:01:49;;;;;;;1.13;1.10;;;;;;;;;;5024902;28;20103;-76
2023/08/30 12:04:15;;;;;;;1.00;0.80;;;;;;;;;;5022853;28;20620;-76
2023/08/30 12:06:40;;;;;;;0.90;0.90;;;;;;;;;;5021981;28;20042;-76
2023/08/30 12:09:12;;;;;;;0.93;0.93;;;;;;;;;;5022302;28;20140;-75
2023/08/30 12:11:37;;;;;;;1.38;1.10;;;;;;;;;;5022066;28;20049;-76
2023/08/30 12:14:03;;;;;;;1.35;1.00;;;;;;;;;;5021956;28;20412;-76
2023/08/30 12:16:28;;;;;;;1.83;0.93;;;;;;;;;;5022343;28;20966;-74
2023/08/30 12:18:54;;;;;;;0.90;0.85;;;;;;;;;;5025190;28;20055;-74
2023/08/30 12:21:19;;;;;;;1.45;0.90;;;;;;;;;;5022686;28;20051;-75
2023/08/30 12:23:44;;;;;;;1.83;1.25;;;;;;;;;;5026843;28;20123;-74
2023/08/30 12:26:10;;;;;;;0.98;0.80;;;;;;;;;;5038965;28;20114;-76
2023/08/30 12:28:40;;;;;;;1.33;0.85;;;;;;;;;;5021225;28;20103;-74
2023/08/30 12:31:07;;;;;;;1.25;1.02;;;;;;;;;;5020814;28;20047;-73
2023/08/30 12:33:35;;;;;;;0.98;0.82;;;;;;;;;;5032807;28;21604;-73
2023/08/30 12:36:01;;;;;;;0.63;0.63;;;;;;;;;;5033207;28;20122;-73
2023/08/30 12:38:27;;;;;;;0.73;0.73;;;;;;;;;;5026226;28;20498;-74
2023/08/30 12:40:55;;;;;;;0.93;0.93;;;;;;;;;;5027801;28;20045;-73
2023/08/30 12:43:21;;;;;;;0.90;0.90;;;;;;;;;;5025961;28;20053;-74
2023/08/30 12:45:47;;;;;;;0.80;0.80;;;;;;;;;;5036298;28;20045;-74
2023/08/30 12:48:16;;;;;;;1.25;0.93;;;;;;;;;;5036129;28;20175;-75
2023/08/30 12:50:43;;;;;;;1.42;1.00;;;;;;;;;;5037447;28;20037;-74
2023/08/30 12:53:09;;;;;;;1.00;0.90;;;;;;;;;;5029842;28;20530;-76
2023/08/30 12:55:35;;;;;;;2.63;1.42;;;;;;;;;;5026386;28;20064;-73
2023/08/30 12:58:01;;;;;;;0.90;0.90;;;;;;;;;;5027000;28;20099;-73
2023/08/30 13:00:27;;;;;;;0.77;0.77;;;;;;;;;;5032966;28;20049;-73
2023/08/30 13:02:52;;;;;;;0.80;0.80;;;;;;;;;;5033554;28;20076;-75
2023/08/30 13:05:18;;;;;;;1.48;0.80;;;;;;;;;;5034067;28;20049;-74
2023/08/30 13:07:43;;;;;;;0.70;0.70;;;;;;;;;;5023913;28;20049;-74
2023/08/30 13:10:10;;;;;;;3.60;1.30;;;;;;;;;;5035921;28;20076;-74
2023/08/30 13:12:35;;;;;;;0.93;0.93;;;;;;;;;;5026355;28;20083;-74
2023/08/30 13:15:01;;;;;;;2.40;0.95;;;;;;;;;;5019862;28;20084;-73
2023/08/30 13:17:27;;;;;;;0.90;0.90;;;;;;;;;;5026113;28;20060;-76
2023/08/30 13:19:52;;;;;;;1.55;1.10;;;;;;;;;;5026237;28;20049;-74
2023/08/30 13:22:18;;;;;;;1.00;0.93;;;;;;;;;;5027773;28;20076;-74
2023/08/30 13:24:44;;;;;;;1.55;1.10;;;;;;;;;;5023740;28;20060;-73
2023/08/30 13:27:10;;;;;;;0.82;0.82;;;;;;;;;;5036651;28;20144;-72
2023/08/30 13:29:36;;;;;;;0.95;0.75;;;;;;;;;;5035948;28;20053;-72
2023/08/30 13:32:01;;;;;;;3.50;0.80;;;;;;;;;;5034461;28;20107;-73
2023/08/30 13:34:27;;;;;;;2.10;1.00;;;;;;;;;;5019673;28;20049;-72
2023/08/30 13:36:52;;;;;;;1.45;0.90;;;;;;;;;;5022281;28;20049;-71
2023/08/30 13:39:20;;;;;;;0.80;0.80;;;;;;;;;;5018937;28;20673;-75
2023/08/30 13:41:46;;;;;;;0.90;0.90;;;;;;;;;;5019828;28;20124;-75
2023/08/30 13:44:13;;;;;;;0.90;0.90;;;;;;;;;;5037197;28;20037;-76
2023/08/30 13:46:38;;;;;;;0.80;0.80;;;;;;;;;;5021606;28;20825;-71
2023/08/30 13:49:04;;;;;;;0.82;0.80;;;;;;;;;;5035138;28;20045;-73
2023/08/30 13:51:30;;;;;;;1.50;0.98;;;;;;;;;;5023752;28;20041;-73
2023/08/30 13:53:56;;;;;;;1.60;1.15;;;;;;;;;;5023015;28;20049;-73
2023/08/30 13:56:22;;;;;;;0.80;0.80;;;;;;;;;;5024373;28;20044;-73
2023/08/30 13:58:47;;;;;;;1.27;0.85;;;;;;;;;;5023673;28;20679;-73
2023/08/30 14:01:13;;;;;;;0.85;0.85;;;;;;;;;;5027283;28;20061;-73
2023/08/30 14:03:38;;;;;;;1.02;0.82;;;;;;;;;;5027534;28;20055;-73
2023/08/30 14:06:04;;;;;;;1.00;0.90;;;;;;;;;;5025507;28;20055;-73
2023/08/30 14:08:31;;;;;;;0.88;0.88;;;;;;;;;;5029943;28;20207;-73
2023/08/30 14:10:56;;;;;;;0.80;0.80;;;;;;;;;;5034431;28;20052;-72
2023/08/30 14:13:22;;;;;;;1.10;1.00;;;;;;;;;;5032751;28;20059;-72
2023/08/30 14:15:47;;;;;;;0.90;0.90;;;;;;;;;;5027616;28;20570;-72
2023/08/30 14:18:14;;;;;;;0.93;0.90;;;;;;;;;;5033489;28;20049;-72
2023/08/30 14:20:43;;;;;;;2.10;1.15;;;;;;;;;;5020675;28;20041;-73
2023/08/30 14:23:09;;;;;;;1.17;1.00;;;;;;;;;;5024282;28;20050;-73
2023/08/30 14:25:34;;;;;;;1.30;1.20;;;;;;;;;;5023362;28;20593;-73
2023/08/30 14:28:01;;;;;;;1.67;1.08;;;;;;;;;;5027354;28;20114;-73
2023/08/30 14:30:26;;;;;;;1.73;1.00;;;;;;;;;;5034563;28;20044;-72
2023/08/30 14:32:52;;;;;;;0.90;0.90;;;;;;;;;;5036728;28;20965;-73
2023/08/30 14:35:20;;;;;;;3.20;1.10;;;;;;;;;;5023487;28;20417;-73
2023/08/30 14:37:47;;;;;;;0.95;0.95;;;;;;;;;;5021926;28;20053;-72